Shannon Airport

Airport
ICAO code: 
EINN
IATA Code: 
SNN
Summary
ICAO Region: 
EUR
Territory: 
Location: 
Shannon, County Clare
Serving: 
Shannon
Elevation: 
46 ft
Coordinates: 
Aerial View: 
52° 41' 55.991" N, 8° 55' 5.929" W
Metar
Observation
EINN 281930Z 04007KT 9999 FEW030 19/07 Q1025 NOSIG
Station
Shannon Airport
Date/Time
2022-05-28 19:30:00
Wind direction
40°
Wind speed
07 kts
Lowest cloud amount
few clouds
Temperature
19°C
Dew point
7°C
Humidity
45%
QNH
1025 hPa
Weather condition
n/a

Description

International airport on the west coast of Ireland. Historically a major refuelling stop and diversion airfield for transatlantic traffic. The airport is located in Shannon, County Clare, Ireland.

Climatology

Temperate Marine climate/Oceanic climate (Köppen climate classification Cfb). Moderately cool summer and comparatively warm winter with a temperature range of only 14°C. Prevailing south-westerly winds from the Atlantic Ocean.

Runways

Designator Length Width Surface Rops
8/26 1465 45 PEM No/No
18/36 1713 45 PEM No/No
13/31 1720 45 ASP Yes/Yes
4/22 1970 60 PEM No/No
6/24 3199 45 ASP Yes/Yes
Airport map: 
Aerial View: 

Accidents and Serious Incidents at or in the vicinity of EINN

SKYbrary Partners:

Safety knowledge contributed by: